sensor_id;sensor_type;location;lat;lon;timestamp;P1;durP1;ratioP1;P2;durP2;ratioP2
7263;SDS011;3673;52.480;13.348;2023-02-15T00:02:01;41.85;;;22.85;;
7263;SDS011;3673;52.480;13.348;2023-02-15T00:04:32;44.83;;;24.48;;
7263;SDS011;3673;52.480;13.348;2023-02-15T00:07:15;35.90;;;21.48;;
7263;SDS011;3673;52.480;13.348;2023-02-15T00:09:44;42.30;;;22.80;;
7263;SDS011;3673;52.480;13.348;2023-02-15T00:12:14;41.45;;;25.50;;
7263;SDS011;3673;52.480;13.348;2023-02-15T00:14:41;39.05;;;21.95;;
7263;SDS011;3673;52.480;13.348;2023-02-15T00:17:08;36.05;;;22.92;;
7263;SDS011;3673;52.480;13.348;2023-02-15T00:19:35;37.25;;;22.52;;
7263;SDS011;3673;52.480;13.348;2023-02-15T00:22:08;38.38;;;22.40;;
7263;SDS011;3673;52.480;13.348;2023-02-15T00:24:36;38.67;;;23.42;;
7263;SDS011;3673;52.480;13.348;2023-02-15T00:27:06;42.15;;;22.17;;
7263;SDS011;3673;52.480;13.348;2023-02-15T00:38:07;39.65;;;23.40;;
7263;SDS011;3673;52.480;13.348;2023-02-15T00:40:52;41.78;;;24.17;;
7263;SDS011;3673;52.480;13.348;2023-02-15T00:43:37;43.25;;;25.25;;
7263;SDS011;3673;52.480;13.348;2023-02-15T00:46:20;44.30;;;23.00;;
7263;SDS011;3673;52.480;13.348;2023-02-15T00:55:11;41.13;;;24.40;;
7263;SDS011;3673;52.480;13.348;2023-02-15T00:57:38;42.00;;;24.73;;
7263;SDS011;3673;52.480;13.348;2023-02-15T01:00:12;44.28;;;25.02;;
7263;SDS011;3673;52.480;13.348;2023-02-15T01:02:42;46.38;;;25.10;;
7263;SDS011;3673;52.480;13.348;2023-02-15T01:05:11;41.13;;;25.15;;
7263;SDS011;3673;52.480;13.348;2023-02-15T01:07:56;45.28;;;25.77;;
7263;SDS011;3673;52.480;13.348;2023-02-15T01:10:27;43.38;;;26.02;;
7263;SDS011;3673;52.480;13.348;2023-02-15T01:13:01;46.78;;;26.13;;
7263;SDS011;3673;52.480;13.348;2023-02-15T01:15:33;46.22;;;24.02;;
7263;SDS011;3673;52.480;13.348;2023-02-15T01:18:15;46.42;;;25.95;;
7263;SDS011;3673;52.480;13.348;2023-02-15T01:20:48;41.63;;;24.80;;
7263;SDS011;3673;52.480;13.348;2023-02-15T01:23:18;41.88;;;25.63;;
7263;SDS011;3673;52.480;13.348;2023-02-15T01:25:52;44.78;;;25.08;;
7263;SDS011;3673;52.480;13.348;2023-02-15T01:28:22;47.67;;;25.10;;
7263;SDS011;3673;52.480;13.348;2023-02-15T01:30:49;48.28;;;26.38;;
7263;SDS011;3673;52.480;13.348;2023-02-15T01:33:21;43.55;;;25.40;;
7263;SDS011;3673;52.480;13.348;2023-02-15T01:35:48;45.40;;;26.05;;
7263;SDS011;3673;52.480;13.348;2023-02-15T01:38:27;44.53;;;25.40;;
7263;SDS011;3673;52.480;13.348;2023-02-15T01:40:54;52.03;;;27.08;;
7263;SDS011;3673;52.480;13.348;2023-02-15T01:43:44;42.72;;;25.83;;
7263;SDS011;3673;52.480;13.348;2023-02-15T01:46:15;45.38;;;25.52;;
7263;SDS011;3673;52.480;13.348;2023-02-15T01:48:46;43.05;;;24.95;;
7263;SDS011;3673;52.480;13.348;2023-02-15T01:51:17;48.50;;;26.55;;
7263;SDS011;3673;52.480;13.348;2023-02-15T01:53:49;52.13;;;26.42;;
7263;SDS011;3673;52.480;13.348;2023-02-15T01:56:23;49.33;;;26.80;;
7263;SDS011;3673;52.480;13.348;2023-02-15T01:58:54;49.05;;;26.58;;
7263;SDS011;3673;52.480;13.348;2023-02-15T02:01:26;45.58;;;26.60;;
7263;SDS011;3673;52.480;13.348;2023-02-15T02:03:56;49.45;;;27.20;;
7263;SDS011;3673;52.480;13.348;2023-02-15T02:06:29;45.53;;;25.52;;
7263;SDS011;3673;52.480;13.348;2023-02-15T02:09:01;52.58;;;27.88;;
7263;SDS011;3673;52.480;13.348;2023-02-15T02:11:29;49.10;;;27.13;;
7263;SDS011;3673;52.480;13.348;2023-02-15T02:13:56;47.45;;;27.02;;
7263;SDS011;3673;52.480;13.348;2023-02-15T02:16:24;51.08;;;29.55;;
7263;SDS011;3673;52.480;13.348;2023-02-15T02:19:19;47.05;;;26.95;;
7263;SDS011;3673;52.480;13.348;2023-02-15T02:22:24;47.97;;;28.20;;
7263;SDS011;3673;52.480;13.348;2023-02-15T02:25:25;47.22;;;25.70;;
7263;SDS011;3673;52.480;13.348;2023-02-15T02:28:25;48.80;;;28.08;;
7263;SDS011;3673;52.480;13.348;2023-02-15T02:31:39;51.67;;;29.60;;
7263;SDS011;3673;52.480;13.348;2023-02-15T02:34:31;47.83;;;27.75;;
7263;SDS011;3673;52.480;13.348;2023-02-15T02:37:08;51.22;;;28.27;;
7263;SDS011;3673;52.480;13.348;2023-02-15T02:39:49;51.13;;;27.92;;
7263;SDS011;3673;52.480;13.348;2023-02-15T02:42:29;54.67;;;29.15;;
7263;SDS011;3673;52.480;13.348;2023-02-15T02:45:19;50.63;;;28.38;;
7263;SDS011;3673;52.480;13.348;2023-02-15T02:47:54;56.13;;;29.48;;
7263;SDS011;3673;52.480;13.348;2023-02-15T02:50:29;54.03;;;29.92;;
7263;SDS011;3673;52.480;13.348;2023-02-15T02:53:00;58.88;;;31.73;;
7263;SDS011;3673;52.480;13.348;2023-02-15T02:55:28;51.05;;;28.42;;
7263;SDS011;3673;52.480;13.348;2023-02-15T02:58:08;57.25;;;30.23;;
7263;SDS011;3673;52.480;13.348;2023-02-15T03:00:42;58.53;;;30.48;;
7263;SDS011;3673;52.480;13.348;2023-02-15T03:03:19;62.83;;;32.03;;
7263;SDS011;3673;52.480;13.348;2023-02-15T03:05:54;61.63;;;31.92;;
7263;SDS011;3673;52.480;13.348;2023-02-15T03:08:27;63.38;;;33.25;;
7263;SDS011;3673;52.480;13.348;2023-02-15T03:11:02;66.38;;;33.17;;
7263;SDS011;3673;52.480;13.348;2023-02-15T03:13:31;64.95;;;34.00;;
7263;SDS011;3673;52.480;13.348;2023-02-15T03:15:59;63.08;;;33.90;;
7263;SDS011;3673;52.480;13.348;2023-02-15T03:18:47;69.43;;;34.78;;
7263;SDS011;3673;52.480;13.348;2023-02-15T03:21:25;64.50;;;34.60;;
7263;SDS011;3673;52.480;13.348;2023-02-15T03:24:01;58.25;;;31.05;;
7263;SDS011;3673;52.480;13.348;2023-02-15T03:26:34;59.88;;;33.15;;
7263;SDS011;3673;52.480;13.348;2023-02-15T03:29:04;65.32;;;33.88;;
7263;SDS011;3673;52.480;13.348;2023-02-15T03:31:35;63.78;;;32.95;;
7263;SDS011;3673;52.480;13.348;2023-02-15T03:34:10;62.15;;;33.72;;
7263;SDS011;3673;52.480;13.348;2023-02-15T03:36:50;69.55;;;33.45;;
7263;SDS011;3673;52.480;13.348;2023-02-15T03:39:30;59.95;;;32.50;;
7263;SDS011;3673;52.480;13.348;2023-02-15T03:42:04;71.00;;;34.50;;
7263;SDS011;3673;52.480;13.348;2023-02-15T03:44:54;63.28;;;33.42;;
7263;SDS011;3673;52.480;13.348;2023-02-15T03:47:27;73.03;;;33.03;;
7263;SDS011;3673;52.480;13.348;2023-02-15T03:49:59;65.93;;;33.00;;
7263;SDS011;3673;52.480;13.348;2023-02-15T03:52:54;68.68;;;33.88;;
7263;SDS011;3673;52.480;13.348;2023-02-15T03:55:26;69.82;;;33.97;;
7263;SDS011;3673;52.480;13.348;2023-02-15T03:57:55;65.70;;;34.78;;
7263;SDS011;3673;52.480;13.348;2023-02-15T04:00:49;68.28;;;31.73;;
7263;SDS011;3673;52.480;13.348;2023-02-15T04:03:42;69.88;;;33.22;;
7263;SDS011;3673;52.480;13.348;2023-02-15T04:06:17;67.93;;;32.45;;
7263;SDS011;3673;52.480;13.348;2023-02-15T04:08:46;66.43;;;34.15;;
7263;SDS011;3673;52.480;13.348;2023-02-15T04:11:31;64.17;;;31.80;;
7263;SDS011;3673;52.480;13.348;2023-02-15T04:13:58;63.80;;;32.85;;
7263;SDS011;3673;52.480;13.348;2023-02-15T04:16:46;70.35;;;31.50;;
7263;SDS011;3673;52.480;13.348;2023-02-15T04:19:12;69.82;;;33.92;;
7263;SDS011;3673;52.480;13.348;2023-02-15T04:21:57;65.07;;;34.13;;
7263;SDS011;3673;52.480;13.348;2023-02-15T04:24:43;67.28;;;32.70;;
7263;SDS011;3673;52.480;13.348;2023-02-15T04:27:28;71.47;;;35.35;;
7263;SDS011;3673;52.480;13.348;2023-02-15T04:29:55;66.00;;;33.55;;
7263;SDS011;3673;52.480;13.348;2023-02-15T04:32:22;66.75;;;34.00;;
7263;SDS011;3673;52.480;13.348;2023-02-15T04:34:49;71.68;;;34.90;;
7263;SDS011;3673;52.480;13.348;2023-02-15T04:37:16;61.40;;;33.13;;
7263;SDS011;3673;52.480;13.348;2023-02-15T04:39:44;64.25;;;32.38;;
7263;SDS011;3673;52.480;13.348;2023-02-15T04:42:11;65.78;;;31.67;;
7263;SDS011;3673;52.480;13.348;2023-02-15T04:44:39;68.13;;;32.85;;
7263;SDS011;3673;52.480;13.348;2023-02-15T04:47:05;67.75;;;32.90;;
7263;SDS011;3673;52.480;13.348;2023-02-15T04:49:32;62.45;;;30.45;;
7263;SDS011;3673;52.480;13.348;2023-02-15T04:51:59;64.82;;;32.70;;
7263;SDS011;3673;52.480;13.348;2023-02-15T04:54:26;61.35;;;31.48;;
7263;SDS011;3673;52.480;13.348;2023-02-15T04:56:55;62.88;;;31.88;;
7263;SDS011;3673;52.480;13.348;2023-02-15T04:59:21;61.70;;;30.17;;
7263;SDS011;3673;52.480;13.348;2023-02-15T05:01:48;64.30;;;30.85;;
7263;SDS011;3673;52.480;13.348;2023-02-15T05:04:15;63.58;;;30.17;;
7263;SDS011;3673;52.480;13.348;2023-02-15T05:06:42;59.85;;;30.55;;
7263;SDS011;3673;52.480;13.348;2023-02-15T05:09:10;68.30;;;34.45;;
7263;SDS011;3673;52.480;13.348;2023-02-15T05:11:37;61.25;;;30.00;;
7263;SDS011;3673;52.480;13.348;2023-02-15T05:14:06;65.38;;;31.23;;
7263;SDS011;3673;52.480;13.348;2023-02-15T05:16:33;73.68;;;32.53;;
7263;SDS011;3673;52.480;13.348;2023-02-15T05:19:00;66.20;;;31.80;;
7263;SDS011;3673;52.480;13.348;2023-02-15T05:21:27;67.40;;;33.97;;
7263;SDS011;3673;52.480;13.348;2023-02-15T05:23:54;70.93;;;33.13;;
7263;SDS011;3673;52.480;13.348;2023-02-15T05:26:22;66.05;;;33.85;;
7263;SDS011;3673;52.480;13.348;2023-02-15T05:29:10;66.00;;;31.17;;
7263;SDS011;3673;52.480;13.348;2023-02-15T05:31:37;64.93;;;30.38;;
7263;SDS011;3673;52.480;13.348;2023-02-15T05:34:04;69.00;;;34.15;;
7263;SDS011;3673;52.480;13.348;2023-02-15T05:36:32;60.40;;;31.00;;
7263;SDS011;3673;52.480;13.348;2023-02-15T05:38:59;72.82;;;33.45;;
7263;SDS011;3673;52.480;13.348;2023-02-15T05:41:28;72.57;;;32.58;;
7263;SDS011;3673;52.480;13.348;2023-02-15T05:43:55;70.35;;;33.83;;
7263;SDS011;3673;52.480;13.348;2023-02-15T05:46:26;68.55;;;33.50;;
7263;SDS011;3673;52.480;13.348;2023-02-15T05:49:07;72.43;;;33.20;;
7263;SDS011;3673;52.480;13.348;2023-02-15T05:51:49;70.38;;;32.55;;
7263;SDS011;3673;52.480;13.348;2023-02-15T05:54:19;70.32;;;32.70;;
7263;SDS011;3673;52.480;13.348;2023-02-15T05:56:47;77.72;;;34.92;;
7263;SDS011;3673;52.480;13.348;2023-02-15T05:59:14;78.85;;;35.50;;
7263;SDS011;3673;52.480;13.348;2023-02-15T06:01:42;75.30;;;34.58;;
7263;SDS011;3673;52.480;13.348;2023-02-15T06:04:09;78.88;;;35.95;;
7263;SDS011;3673;52.480;13.348;2023-02-15T06:06:36;81.38;;;37.45;;
7263;SDS011;3673;52.480;13.348;2023-02-15T06:09:03;68.60;;;31.92;;
7263;SDS011;3673;52.480;13.348;2023-02-15T06:11:30;76.63;;;35.17;;
7263;SDS011;3673;52.480;13.348;2023-02-15T06:13:57;83.13;;;34.88;;
7263;SDS011;3673;52.480;13.348;2023-02-15T06:16:26;75.22;;;31.90;;
7263;SDS011;3673;52.480;13.348;2023-02-15T06:18:54;75.55;;;33.30;;
7263;SDS011;3673;52.480;13.348;2023-02-15T06:21:21;72.53;;;32.15;;
7263;SDS011;3673;52.480;13.348;2023-02-15T06:23:48;75.72;;;33.28;;
7263;SDS011;3673;52.480;13.348;2023-02-15T06:26:16;81.65;;;33.53;;
7263;SDS011;3673;52.480;13.348;2023-02-15T06:28:43;86.00;;;34.55;;
7263;SDS011;3673;52.480;13.348;2023-02-15T06:31:10;88.78;;;35.35;;
7263;SDS011;3673;52.480;13.348;2023-02-15T06:33:38;83.50;;;36.42;;
7263;SDS011;3673;52.480;13.348;2023-02-15T06:36:07;84.30;;;34.30;;
7263;SDS011;3673;52.480;13.348;2023-02-15T06:38:34;79.75;;;32.70;;
7263;SDS011;3673;52.480;13.348;2023-02-15T06:41:01;78.93;;;33.25;;
7263;SDS011;3673;52.480;13.348;2023-02-15T06:43:28;75.88;;;35.13;;
7263;SDS011;3673;52.480;13.348;2023-02-15T06:45:55;78.88;;;34.83;;
7263;SDS011;3673;52.480;13.348;2023-02-15T06:48:22;81.07;;;33.40;;
7263;SDS011;3673;52.480;13.348;2023-02-15T06:50:49;73.65;;;31.65;;
7263;SDS011;3673;52.480;13.348;2023-02-15T06:53:17;81.70;;;32.83;;
7263;SDS011;3673;52.480;13.348;2023-02-15T06:55:44;79.20;;;33.85;;
7263;SDS011;3673;52.480;13.348;2023-02-15T06:58:11;79.53;;;33.15;;
7263;SDS011;3673;52.480;13.348;2023-02-15T07:00:37;70.68;;;31.33;;
7263;SDS011;3673;52.480;13.348;2023-02-15T07:03:04;84.18;;;35.50;;
7263;SDS011;3673;52.480;13.348;2023-02-15T07:05:32;80.20;;;33.25;;
7263;SDS011;3673;52.480;13.348;2023-02-15T07:08:00;75.88;;;31.88;;
7263;SDS011;3673;52.480;13.348;2023-02-15T07:10:28;77.40;;;34.67;;
7263;SDS011;3673;52.480;13.348;2023-02-15T07:12:55;76.20;;;31.15;;
7263;SDS011;3673;52.480;13.348;2023-02-15T07:15:21;64.05;;;29.40;;
7263;SDS011;3673;52.480;13.348;2023-02-15T07:17:48;75.82;;;33.00;;
7263;SDS011;3673;52.480;13.348;2023-02-15T07:20:16;78.43;;;31.15;;
7263;SDS011;3673;52.480;13.348;2023-02-15T07:22:45;75.75;;;31.75;;
7263;SDS011;3673;52.480;13.348;2023-02-15T07:25:12;70.53;;;30.10;;
7263;SDS011;3673;52.480;13.348;2023-02-15T07:27:40;78.57;;;32.40;;
7263;SDS011;3673;52.480;13.348;2023-02-15T07:30:09;69.70;;;31.95;;
7263;SDS011;3673;52.480;13.348;2023-02-15T07:32:39;66.05;;;28.55;;
7263;SDS011;3673;52.480;13.348;2023-02-15T07:35:26;70.13;;;31.55;;
7263;SDS011;3673;52.480;13.348;2023-02-15T07:37:53;69.13;;;29.90;;
7263;SDS011;3673;52.480;13.348;2023-02-15T07:40:20;82.53;;;29.25;;
7263;SDS011;3673;52.480;13.348;2023-02-15T07:42:50;69.30;;;29.88;;
7263;SDS011;3673;52.480;13.348;2023-02-15T07:45:19;80.75;;;31.88;;
7263;SDS011;3673;52.480;13.348;2023-02-15T07:47:46;72.65;;;31.13;;
7263;SDS011;3673;52.480;13.348;2023-02-15T07:50:13;67.03;;;29.83;;
7263;SDS011;3673;52.480;13.348;2023-02-15T07:52:40;73.13;;;31.70;;
7263;SDS011;3673;52.480;13.348;2023-02-15T07:55:07;87.80;;;31.80;;
7263;SDS011;3673;52.480;13.348;2023-02-15T07:57:37;69.20;;;31.35;;
7263;SDS011;3673;52.480;13.348;2023-02-15T08:00:10;64.25;;;30.45;;
7263;SDS011;3673;52.480;13.348;2023-02-15T08:02:39;71.68;;;29.65;;
7263;SDS011;3673;52.480;13.348;2023-02-15T08:05:06;76.22;;;29.42;;
7263;SDS011;3673;52.480;13.348;2023-02-15T08:07:33;66.10;;;30.85;;
7263;SDS011;3673;52.480;13.348;2023-02-15T08:10:00;66.70;;;29.95;;
7263;SDS011;3673;52.480;13.348;2023-02-15T08:12:26;67.90;;;29.77;;
7263;SDS011;3673;52.480;13.348;2023-02-15T08:14:54;61.03;;;26.65;;
7263;SDS011;3673;52.480;13.348;2023-02-15T08:17:22;62.42;;;29.58;;
7263;SDS011;3673;52.480;13.348;2023-02-15T08:19:49;58.72;;;27.13;;
7263;SDS011;3673;52.480;13.348;2023-02-15T08:22:16;60.97;;;27.38;;
7263;SDS011;3673;52.480;13.348;2023-02-15T08:24:42;62.22;;;28.73;;
7263;SDS011;3673;52.480;13.348;2023-02-15T08:27:10;55.55;;;27.05;;
7263;SDS011;3673;52.480;13.348;2023-02-15T08:29:37;58.58;;;27.75;;
7263;SDS011;3673;52.480;13.348;2023-02-15T08:32:07;60.70;;;29.77;;
7263;SDS011;3673;52.480;13.348;2023-02-15T08:34:39;58.40;;;28.30;;
7263;SDS011;3673;52.480;13.348;2023-02-15T08:37:07;53.50;;;27.45;;
7263;SDS011;3673;52.480;13.348;2023-02-15T08:39:34;63.38;;;30.25;;
7263;SDS011;3673;52.480;13.348;2023-02-15T08:42:01;61.90;;;29.10;;
7263;SDS011;3673;52.480;13.348;2023-02-15T08:44:28;58.63;;;28.58;;
7263;SDS011;3673;52.480;13.348;2023-02-15T08:46:55;63.45;;;30.42;;
7263;SDS011;3673;52.480;13.348;2023-02-15T08:49:27;58.30;;;28.35;;
7263;SDS011;3673;52.480;13.348;2023-02-15T08:51:55;58.88;;;26.52;;
7263;SDS011;3673;52.480;13.348;2023-02-15T08:54:22;58.22;;;27.73;;
7263;SDS011;3673;52.480;13.348;2023-02-15T08:56:49;57.58;;;27.77;;
7263;SDS011;3673;52.480;13.348;2023-02-15T08:59:17;58.92;;;30.73;;
7263;SDS011;3673;52.480;13.348;2023-02-15T09:01:45;63.70;;;29.75;;
7263;SDS011;3673;52.480;13.348;2023-02-15T09:04:13;65.10;;;30.33;;
7263;SDS011;3673;52.480;13.348;2023-02-15T09:06:41;63.03;;;29.65;;
7263;SDS011;3673;52.480;13.348;2023-02-15T09:09:11;56.97;;;29.08;;
7263;SDS011;3673;52.480;13.348;2023-02-15T09:11:39;59.75;;;29.48;;
7263;SDS011;3673;52.480;13.348;2023-02-15T09:14:08;59.33;;;28.35;;
7263;SDS011;3673;52.480;13.348;2023-02-15T09:16:39;64.32;;;30.83;;
7263;SDS011;3673;52.480;13.348;2023-02-15T09:19:09;57.40;;;28.48;;
7263;SDS011;3673;52.480;13.348;2023-02-15T09:21:36;50.15;;;26.67;;
7263;SDS011;3673;52.480;13.348;2023-02-15T09:24:05;53.60;;;26.20;;
7263;SDS011;3673;52.480;13.348;2023-02-15T09:26:36;55.88;;;28.40;;
7263;SDS011;3673;52.480;13.348;2023-02-15T09:29:06;55.42;;;27.27;;
7263;SDS011;3673;52.480;13.348;2023-02-15T09:31:36;52.53;;;26.60;;
7263;SDS011;3673;52.480;13.348;2023-02-15T09:34:06;55.25;;;26.77;;
7263;SDS011;3673;52.480;13.348;2023-02-15T09:36:34;54.63;;;27.67;;
7263;SDS011;3673;52.480;13.348;2023-02-15T09:39:04;51.97;;;26.33;;
7263;SDS011;3673;52.480;13.348;2023-02-15T09:41:46;52.08;;;25.77;;
7263;SDS011;3673;52.480;13.348;2023-02-15T09:44:50;48.97;;;26.25;;
7263;SDS011;3673;52.480;13.348;2023-02-15T09:47:38;50.30;;;26.55;;
7263;SDS011;3673;52.480;13.348;2023-02-15T09:50:43;45.20;;;24.85;;
7263;SDS011;3673;52.480;13.348;2023-02-15T09:53:31;47.58;;;25.55;;
7263;SDS011;3673;52.480;13.348;2023-02-15T09:56:14;49.95;;;26.27;;
7263;SDS011;3673;52.480;13.348;2023-02-15T09:58:50;44.72;;;24.67;;
7263;SDS011;3673;52.480;13.348;2023-02-15T10:01:26;45.38;;;23.52;;
7263;SDS011;3673;52.480;13.348;2023-02-15T10:04:06;47.10;;;24.77;;
7263;SDS011;3673;52.480;13.348;2023-02-15T10:06:55;46.40;;;26.00;;
7263;SDS011;3673;52.480;13.348;2023-02-15T10:09:39;47.58;;;22.02;;
7263;SDS011;3673;52.480;13.348;2023-02-15T10:15:26;41.83;;;24.40;;
7263;SDS011;3673;52.480;13.348;2023-02-15T10:18:13;44.25;;;24.48;;
7263;SDS011;3673;52.480;13.348;2023-02-15T10:20:55;47.35;;;23.35;;
7263;SDS011;3673;52.480;13.348;2023-02-15T10:23:35;42.47;;;23.85;;
7263;SDS011;3673;52.480;13.348;2023-02-15T10:26:28;46.58;;;25.92;;
7263;SDS011;3673;52.480;13.348;2023-02-15T10:29:03;45.55;;;25.17;;
7263;SDS011;3673;52.480;13.348;2023-02-15T10:31:43;47.75;;;25.67;;
7263;SDS011;3673;52.480;13.348;2023-02-15T10:34:16;54.05;;;28.75;;
7263;SDS011;3673;52.480;13.348;2023-02-15T10:36:58;45.35;;;25.25;;
7263;SDS011;3673;52.480;13.348;2023-02-15T10:39:42;60.13;;;29.27;;
7263;SDS011;3673;52.480;13.348;2023-02-15T10:42:24;44.85;;;25.70;;
7263;SDS011;3673;52.480;13.348;2023-02-15T10:45:06;45.60;;;25.17;;
7263;SDS011;3673;52.480;13.348;2023-02-15T10:47:56;49.92;;;25.77;;
7263;SDS011;3673;52.480;13.348;2023-02-15T10:51:02;48.63;;;25.95;;
7263;SDS011;3673;52.480;13.348;2023-02-15T10:53:38;53.30;;;24.70;;
7263;SDS011;3673;52.480;13.348;2023-02-15T10:56:29;48.30;;;26.55;;
7263;SDS011;3673;52.480;13.348;2023-02-15T10:59:06;51.35;;;26.60;;
7263;SDS011;3673;52.480;13.348;2023-02-15T11:01:56;52.50;;;28.08;;
7263;SDS011;3673;52.480;13.348;2023-02-15T11:04:39;49.47;;;27.60;;
7263;SDS011;3673;52.480;13.348;2023-02-15T11:07:16;52.35;;;29.98;;
7263;SDS011;3673;52.480;13.348;2023-02-15T11:09:49;51.72;;;27.33;;
7263;SDS011;3673;52.480;13.348;2023-02-15T11:12:25;44.08;;;24.23;;
7263;SDS011;3673;52.480;13.348;2023-02-15T11:14:56;43.45;;;24.98;;
7263;SDS011;3673;52.480;13.348;2023-02-15T11:17:30;49.15;;;25.70;;
7263;SDS011;3673;52.480;13.348;2023-02-15T11:20:11;48.53;;;28.00;;
7263;SDS011;3673;52.480;13.348;2023-02-15T11:22:46;49.08;;;25.83;;
7263;SDS011;3673;52.480;13.348;2023-02-15T11:25:17;44.85;;;24.42;;
7263;SDS011;3673;52.480;13.348;2023-02-15T11:27:49;46.25;;;24.95;;
7263;SDS011;3673;52.480;13.348;2023-02-15T11:30:19;42.15;;;24.73;;
7263;SDS011;3673;52.480;13.348;2023-02-15T11:32:48;43.53;;;24.70;;
7263;SDS011;3673;52.480;13.348;2023-02-15T11:35:22;39.83;;;23.02;;
7263;SDS011;3673;52.480;13.348;2023-02-15T11:37:54;35.80;;;20.67;;
7263;SDS011;3673;52.480;13.348;2023-02-15T11:40:31;37.95;;;22.45;;
7263;SDS011;3673;52.480;13.348;2023-02-15T11:43:04;44.08;;;24.58;;
7263;SDS011;3673;52.480;13.348;2023-02-15T11:45:39;42.03;;;23.30;;
7263;SDS011;3673;52.480;13.348;2023-02-15T11:48:09;41.60;;;23.60;;
7263;SDS011;3673;52.480;13.348;2023-02-15T11:50:40;36.35;;;22.08;;
7263;SDS011;3673;52.480;13.348;2023-02-15T11:53:09;45.22;;;24.50;;
7263;SDS011;3673;52.480;13.348;2023-02-15T11:55:40;41.05;;;23.17;;
7263;SDS011;3673;52.480;13.348;2023-02-15T11:58:21;42.42;;;22.35;;
7263;SDS011;3673;52.480;13.348;2023-02-15T12:00:56;36.60;;;21.67;;
7263;SDS011;3673;52.480;13.348;2023-02-15T12:03:33;38.45;;;22.88;;
7263;SDS011;3673;52.480;13.348;2023-02-15T12:06:14;46.22;;;25.52;;
7263;SDS011;3673;52.480;13.348;2023-02-15T12:08:49;41.22;;;22.70;;
7263;SDS011;3673;52.480;13.348;2023-02-15T12:11:26;41.78;;;23.42;;
7263;SDS011;3673;52.480;13.348;2023-02-15T12:14:00;38.08;;;22.08;;
7263;SDS011;3673;52.480;13.348;2023-02-15T12:16:31;34.83;;;21.98;;
7263;SDS011;3673;52.480;13.348;2023-02-15T12:19:12;40.40;;;23.75;;
7263;SDS011;3673;52.480;13.348;2023-02-15T12:21:57;38.60;;;23.30;;
7263;SDS011;3673;52.480;13.348;2023-02-15T12:24:27;34.67;;;22.55;;
7263;SDS011;3673;52.480;13.348;2023-02-15T12:27:00;30.52;;;20.33;;
7263;SDS011;3673;52.480;13.348;2023-02-15T12:29:30;32.53;;;18.60;;
7263;SDS011;3673;52.480;13.348;2023-02-15T12:32:02;33.08;;;19.67;;
7263;SDS011;3673;52.480;13.348;2023-02-15T12:34:30;31.38;;;18.83;;
7263;SDS011;3673;52.480;13.348;2023-02-15T12:37:09;28.42;;;18.25;;
7263;SDS011;3673;52.480;13.348;2023-02-15T12:39:50;39.47;;;21.92;;
7263;SDS011;3673;52.480;13.348;2023-02-15T12:42:19;31.60;;;19.25;;
7263;SDS011;3673;52.480;13.348;2023-02-15T12:44:57;36.13;;;22.08;;
7263;SDS011;3673;52.480;13.348;2023-02-15T12:47:26;33.40;;;19.13;;
7263;SDS011;3673;52.480;13.348;2023-02-15T12:50:08;30.55;;;19.35;;
7263;SDS011;3673;52.480;13.348;2023-02-15T12:52:44;32.35;;;20.33;;
7263;SDS011;3673;52.480;13.348;2023-02-15T12:55:20;27.02;;;17.70;;
7263;SDS011;3673;52.480;13.348;2023-02-15T12:58:04;30.90;;;19.67;;
7263;SDS011;3673;52.480;13.348;2023-02-15T13:00:41;25.98;;;17.17;;
7263;SDS011;3673;52.480;13.348;2023-02-15T13:03:15;28.02;;;17.42;;
7263;SDS011;3673;52.480;13.348;2023-02-15T13:05:45;25.03;;;16.03;;
7263;SDS011;3673;52.480;13.348;2023-02-15T13:08:19;25.33;;;16.08;;
7263;SDS011;3673;52.480;13.348;2023-02-15T13:10:53;25.08;;;16.75;;
7263;SDS011;3673;52.480;13.348;2023-02-15T13:13:24;26.35;;;17.40;;
7263;SDS011;3673;52.480;13.348;2023-02-15T13:15:54;24.70;;;16.67;;
7263;SDS011;3673;52.480;13.348;2023-02-15T13:18:28;25.00;;;16.70;;
7263;SDS011;3673;52.480;13.348;2023-02-15T13:21:00;22.55;;;16.77;;
7263;SDS011;3673;52.480;13.348;2023-02-15T13:26:04;30.17;;;17.90;;
7263;SDS011;3673;52.480;13.348;2023-02-15T13:28:39;26.77;;;17.00;;
7263;SDS011;3673;52.480;13.348;2023-02-15T13:31:11;25.80;;;17.05;;
7263;SDS011;3673;52.480;13.348;2023-02-15T13:33:42;26.75;;;17.20;;
7263;SDS011;3673;52.480;13.348;2023-02-15T13:36:14;24.20;;;16.17;;
7263;SDS011;3673;52.480;13.348;2023-02-15T13:38:50;26.70;;;18.15;;
7263;SDS011;3673;52.480;13.348;2023-02-15T13:41:30;23.17;;;15.45;;
7263;SDS011;3673;52.480;13.348;2023-02-15T13:44:07;20.80;;;15.85;;
7263;SDS011;3673;52.480;13.348;2023-02-15T13:46:50;26.80;;;18.42;;
7263;SDS011;3673;52.480;13.348;2023-02-15T13:49:34;24.33;;;17.35;;
7263;SDS011;3673;52.480;13.348;2023-02-15T13:52:17;22.77;;;17.80;;
7263;SDS011;3673;52.480;13.348;2023-02-15T13:58:06;26.85;;;18.52;;
7263;SDS011;3673;52.480;13.348;2023-02-15T14:00:50;21.50;;;16.77;;
7263;SDS011;3673;52.480;13.348;2023-02-15T14:06:38;20.67;;;14.93;;
7263;SDS011;3673;52.480;13.348;2023-02-15T14:09:47;21.23;;;14.82;;
7263;SDS011;3673;52.480;13.348;2023-02-15T14:12:36;19.92;;;14.30;;
7263;SDS011;3673;52.480;13.348;2023-02-15T14:15:24;21.40;;;15.65;;
7263;SDS011;3673;52.480;13.348;2023-02-15T14:18:04;20.55;;;15.05;;
7263;SDS011;3673;52.480;13.348;2023-02-15T14:20:46;20.33;;;15.57;;
7263;SDS011;3673;52.480;13.348;2023-02-15T14:23:26;21.88;;;16.48;;
7263;SDS011;3673;52.480;13.348;2023-02-15T14:26:11;24.30;;;15.38;;
7263;SDS011;3673;52.480;13.348;2023-02-15T14:28:49;19.45;;;15.70;;
7263;SDS011;3673;52.480;13.348;2023-02-15T14:31:27;24.55;;;17.58;;
7263;SDS011;3673;52.480;13.348;2023-02-15T14:34:00;22.15;;;16.67;;
7263;SDS011;3673;52.480;13.348;2023-02-15T14:36:27;23.50;;;17.73;;
7263;SDS011;3673;52.480;13.348;2023-02-15T14:38:59;20.77;;;17.10;;
7263;SDS011;3673;52.480;13.348;2023-02-15T14:41:56;25.05;;;18.70;;
7263;SDS011;3673;52.480;13.348;2023-02-15T14:44:29;21.73;;;17.17;;
7263;SDS011;3673;52.480;13.348;2023-02-15T14:47:04;22.45;;;17.20;;
7263;SDS011;3673;52.480;13.348;2023-02-15T14:49:38;21.77;;;16.67;;
7263;SDS011;3673;52.480;13.348;2023-02-15T14:52:06;22.80;;;15.25;;
7263;SDS011;3673;52.480;13.348;2023-02-15T14:57:24;24.00;;;18.52;;
7263;SDS011;3673;52.480;13.348;2023-02-15T14:59:55;21.00;;;15.35;;
7263;SDS011;3673;52.480;13.348;2023-02-15T15:02:24;30.48;;;19.25;;
7263;SDS011;3673;52.480;13.348;2023-02-15T15:04:56;31.38;;;19.13;;
7263;SDS011;3673;52.480;13.348;2023-02-15T15:07:34;22.58;;;15.40;;
7263;SDS011;3673;52.480;13.348;2023-02-15T15:22:38;28.38;;;17.30;;
7263;SDS011;3673;52.480;13.348;2023-02-15T15:25:10;20.95;;;13.23;;
7263;SDS011;3673;52.480;13.348;2023-02-15T15:27:53;21.73;;;14.25;;
7263;SDS011;3673;52.480;13.348;2023-02-15T15:33:45;19.58;;;12.90;;
7263;SDS011;3673;52.480;13.348;2023-02-15T15:40:17;16.83;;;11.93;;
7263;SDS011;3673;52.480;13.348;2023-02-15T15:43:29;19.60;;;12.60;;
7263;SDS011;3673;52.480;13.348;2023-02-15T15:46:21;17.67;;;11.98;;
7263;SDS011;3673;52.480;13.348;2023-02-15T15:49:09;21.33;;;12.55;;
7263;SDS011;3673;52.480;13.348;2023-02-15T15:51:41;21.90;;;12.02;;
7263;SDS011;3673;52.480;13.348;2023-02-15T15:54:12;17.73;;;11.60;;
7263;SDS011;3673;52.480;13.348;2023-02-15T15:56:43;18.05;;;12.10;;
7263;SDS011;3673;52.480;13.348;2023-02-15T15:59:17;19.85;;;12.90;;
7263;SDS011;3673;52.480;13.348;2023-02-15T16:01:48;19.45;;;11.50;;
7263;SDS011;3673;52.480;13.348;2023-02-15T16:04:23;15.90;;;11.45;;